Time;durP1;ratioP1;P1;durP2;ratioP2;P2;SDS_P1;SDS_P2;PMS_P1;PMS_P2;Temp;Humidity;BMP_temperature;BMP_pressure;BME280_temperature;BME280_humidity;BME280_pressure;Samples;Min_cycle;Max_cycle;Signal;HPM_P1;HPM_P2
2023/12/15 00:00:40;;;;;;;;;7.75;7.50;;;;;-146.67;56.05;76488.88;5042433;28;61946;-73
2023/12/15 00:03:05;;;;;;;;;8.00;6.75;;;;;-146.67;55.61;76492.88;5042274;28;61819;-73
2023/12/15 00:05:31;;;;;;;;;6.25;6.25;;;;;-146.67;55.85;76498.84;5042356;28;61953;-73
2023/12/15 00:07:56;;;;;;;;;6.00;4.00;;;;;-146.67;56.02;76502.84;5041160;28;61833;-73
2023/12/15 00:10:21;;;;;;;;;9.25;8.25;;;;;-146.67;55.99;76502.84;5041849;28;61893;-73
2023/12/15 00:12:47;;;;;;;;;7.50;6.50;;;;;-146.67;55.90;76508.84;5040623;28;62073;-73
2023/12/15 00:15:12;;;;;;;;;7.00;6.00;;;;;-146.67;56.10;76502.84;5042330;28;61829;-73
2023/12/15 00:17:38;;;;;;;;;4.50;4.50;;;;;-146.67;55.97;76510.84;5040210;28;63800;-73
2023/12/15 00:20:03;;;;;;;;;6.75;6.75;;;;;-146.67;56.36;76506.84;5041143;28;62133;-73
2023/12/15 00:22:29;;;;;;;;;12.25;7.25;;;;;-146.67;56.41;76510.84;5061909;28;61774;-73
2023/12/15 00:24:54;;;;;;;;;9.75;8.00;;;;;-146.67;56.34;76504.84;5061877;28;61844;-73
2023/12/15 00:27:19;;;;;;;;;10.50;8.00;;;;;-146.67;56.19;76500.84;5061288;28;61831;-73
2023/12/15 00:29:45;;;;;;;;;9.00;6.50;;;;;-146.67;56.04;76500.84;5062208;28;61927;-73
2023/12/15 00:32:10;;;;;;;;;8.25;7.75;;;;;-146.67;56.30;76498.84;5060310;28;61817;-73
2023/12/15 00:34:35;;;;;;;;;12.75;7.50;;;;;-146.67;56.21;76500.84;5045142;28;61883;-73
2023/12/15 00:37:01;;;;;;;;;8.75;7.25;;;;;-146.67;56.33;76500.84;5041599;28;62734;-74
2023/12/15 00:39:26;;;;;;;;;9.00;7.75;;;;;-146.67;56.41;76502.84;5041506;28;61695;-74
2023/12/15 00:41:52;;;;;;;;;10.25;8.25;;;;;-146.67;56.20;76498.84;5041770;28;61829;-73
2023/12/15 00:44:17;;;;;;;;;10.50;9.00;;;;;-146.67;55.98;76502.84;5042139;28;61927;-73
2023/12/15 00:46:42;;;;;;;;;10.75;7.00;;;;;-146.67;56.24;76508.84;5046853;28;62750;-73
2023/12/15 00:49:08;;;;;;;;;7.50;7.50;;;;;-146.67;56.35;76514.84;5038615;28;61976;-73
2023/12/15 00:51:33;;;;;;;;;7.50;7.50;;;;;-146.67;56.43;76512.84;5042266;28;61850;-73
2023/12/15 00:53:58;;;;;;;;;9.00;7.00;;;;;-146.67;56.47;76508.84;5060506;28;62300;-73
2023/12/15 00:56:24;;;;;;;;;13.00;7.75;;;;;-146.67;56.49;76508.84;5060017;28;61793;-73
2023/12/15 00:58:49;;;;;;;;;14.00;8.25;;;;;-146.67;56.57;76506.84;5059796;28;62015;-73
2023/12/15 01:01:15;;;;;;;;;9.00;7.50;;;;;-146.67;56.60;76506.84;5060818;28;61706;-73
2023/12/15 01:03:40;;;;;;;;;7.50;6.50;;;;;-146.67;56.52;76500.84;5060597;28;61833;-73
2023/12/15 01:06:05;;;;;;;;;12.75;9.75;;;;;-146.67;56.63;76498.84;5060177;28;62611;-73
2023/12/15 01:08:31;;;;;;;;;7.00;7.00;;;;;-146.67;56.80;76498.84;5061316;28;61876;-73
2023/12/15 01:10:56;;;;;;;;;8.50;8.00;;;;;-146.67;56.66;76494.84;5061537;28;61933;-73
2023/12/15 01:13:22;;;;;;;;;15.25;12.25;;;;;-146.67;56.56;76492.88;5060949;28;61912;-73
2023/12/15 01:15:47;;;;;;;;;15.00;12.50;;;;;-146.67;56.74;76484.88;5051213;28;62825;-73
2023/12/15 01:18:12;;;;;;;;;9.00;9.00;;;;;-146.67;56.75;76492.88;5040928;28;61730;-73
2023/12/15 01:20:38;;;;;;;;;10.00;8.25;;;;;-146.67;56.59;76494.84;5059385;28;61946;-73
2023/12/15 01:23:04;;;;;;;;;12.00;8.50;;;;;-146.67;56.52;76512.84;5061289;28;62196;-73
2023/12/15 01:25:29;;;;;;;;;9.25;6.00;;;;;-146.67;57.16;76518.81;5060675;28;61928;-73
2023/12/15 01:27:54;;;;;;;;;13.25;11.00;;;;;-146.67;57.26;76510.84;5061165;28;61973;-73
2023/12/15 01:30:20;;;;;;;;;12.25;8.25;;;;;-146.67;57.54;76510.84;5061100;28;61773;-73
2023/12/15 01:32:45;;;;;;;;;15.50;11.25;;;;;-146.67;57.20;76512.84;5061341;28;61821;-73
2023/12/15 01:35:10;;;;;;;;;10.00;8.25;;;;;-146.67;57.35;76508.84;5059888;28;61773;-74
2023/12/15 01:37:36;;;;;;;;;11.00;10.00;;;;;-146.67;57.38;76506.84;5060930;28;61766;-73
2023/12/15 01:40:02;;;;;;;;;13.75;12.75;;;;;-146.67;57.27;76510.84;5059988;28;61840;-73
2023/12/15 01:42:28;;;;;;;;;14.00;12.00;;;;;-146.67;57.25;76518.81;5062453;28;61982;-73
2023/12/15 01:44:53;;;;;;;;;13.00;11.00;;;;;-146.67;57.39;76506.84;5079521;28;63480;-73
2023/12/15 01:47:21;;;;;;;;;11.00;11.00;;;;;-146.67;57.28;76504.84;5064001;28;61680;-73
2023/12/15 01:49:47;;;;;;;;;12.75;10.00;;;;;-146.67;57.37;76506.84;5063546;28;61958;-73
2023/12/15 01:52:12;;;;;;;;;11.25;9.75;;;;;-146.67;57.41;76512.84;5047389;28;62168;-73
2023/12/15 01:54:37;;;;;;;;;17.00;10.50;;;;;-146.67;57.54;76510.84;5043823;28;61856;-73
2023/12/15 01:57:04;;;;;;;;;13.00;9.00;;;;;-146.67;57.54;76514.84;5044109;28;61968;-73
2023/12/15 01:59:46;;;;;;;;;14.00;11.50;;;;;-146.67;57.24;76512.84;5044207;28;62167;-73
2023/12/15 02:02:12;;;;;;;;;16.00;11.00;;;;;-146.67;57.56;76520.81;5044238;28;61926;-73
2023/12/15 02:04:38;;;;;;;;;12.75;10.25;;;;;-146.67;57.51;76518.81;5042853;28;61925;-73
2023/12/15 02:07:03;;;;;;;;;14.50;12.00;;;;;-146.67;57.29;76520.81;5042783;28;62023;-73
2023/12/15 02:09:29;;;;;;;;;14.00;13.00;;;;;-146.67;57.51;76530.81;5043742;28;62464;-74
2023/12/15 02:11:54;;;;;;;;;15.75;13.00;;;;;-146.67;57.60;76530.81;5044206;28;61790;-73
2023/12/15 02:14:19;;;;;;;;;15.00;14.00;;;;;-146.67;57.70;76536.81;5043337;28;61817;-73
2023/12/15 02:16:45;;;;;;;;;19.25;14.50;;;;;-146.67;57.87;76530.81;5043710;28;61887;-74
2023/12/15 02:19:10;;;;;;;;;10.00;10.00;;;;;-146.67;57.80;76532.81;5042862;28;61935;-73
2023/12/15 02:21:35;;;;;;;;;19.50;12.00;;;;;-146.67;57.76;76552.78;5056038;28;61932;-73
2023/12/15 02:24:01;;;;;;;;;17.25;12.75;;;;;-146.67;58.00;76550.78;5063393;28;61941;-73
2023/12/15 02:26:26;;;;;;;;;15.25;12.50;;;;;-146.67;57.71;76564.78;5063813;28;62481;-73
2023/12/15 02:28:51;;;;;;;;;13.75;12.25;;;;;-146.67;58.27;76572.75;5064182;28;62153;-73
2023/12/15 02:31:21;;;;;;;;;17.25;13.75;;;;;-146.67;58.72;76582.75;5063794;28;62271;-73
2023/12/15 02:33:46;;;;;;;;;11.75;10.25;;;;;-146.67;59.11;76588.75;5062726;28;63177;-73
2023/12/15 02:36:19;;;;;;;;;14.50;11.75;;;;;-146.67;58.87;76598.72;5062491;28;62203;-73
2023/12/15 02:38:45;;;;;;;;;12.50;12.00;;;;;-146.67;58.93;76604.72;5055537;28;61736;-73
2023/12/15 02:41:11;;;;;;;;;16.25;13.25;;;;;-146.67;59.07;76614.72;5043840;28;61878;-73
2023/12/15 02:43:36;;;;;;;;;22.00;13.00;;;;;-146.67;59.52;76612.72;5042693;28;61688;-73
2023/12/15 02:46:02;;;;;;;;;15.75;13.25;;;;;-146.67;59.45;76612.72;5043517;28;61817;-73
2023/12/15 02:48:27;;;;;;;;;18.50;14.75;;;;;-146.67;59.37;76618.69;5042590;28;61894;-73
2023/12/15 02:50:52;;;;;;;;;20.75;18.50;;;;;-146.67;59.29;76624.69;5050448;28;62097;-73
2023/12/15 02:53:18;;;;;;;;;20.50;14.50;;;;;-146.67;59.46;76624.69;5061071;28;61798;-74
2023/12/15 02:55:44;;;;;;;;;19.00;13.00;;;;;-146.67;59.19;76634.69;5061361;28;61881;-73
2023/12/15 02:58:10;;;;;;;;;15.75;12.75;;;;;-146.67;59.21;76642.66;5063211;28;61971;-73
2023/12/15 03:00:35;;;;;;;;;16.75;12.50;;;;;-146.67;59.23;76648.66;5063326;28;62219;-74
2023/12/15 03:03:00;;;;;;;;;13.75;12.25;;;;;-146.67;58.96;76660.66;5062031;28;61889;-73
2023/12/15 03:05:26;;;;;;;;;12.50;11.00;;;;;-146.67;59.46;76664.66;5062999;28;61943;-73
2023/12/15 03:07:51;;;;;;;;;14.50;12.00;;;;;-146.67;59.06;76660.66;5063285;28;62161;-73
2023/12/15 03:10:16;;;;;;;;;14.75;8.50;;;;;-146.67;59.19;76658.66;5063536;28;61775;-73
2023/12/15 03:12:42;;;;;;;;;20.50;15.25;;;;;-146.67;59.19;76650.66;5062337;28;61834;-73
2023/12/15 03:15:07;;;;;;;;;15.75;13.75;;;;;-146.67;59.27;76652.66;5063310;28;61916;-73
2023/12/15 03:17:33;;;;;;;;;12.25;11.00;;;;;-146.67;58.94;76646.66;5062356;28;61918;-73
2023/12/15 03:19:58;;;;;;;;;19.25;13.00;;;;;-146.67;59.29;76662.66;5062630;28;61837;-73
2023/12/15 03:22:23;;;;;;;;;11.00;9.00;;;;;-146.67;59.47;76658.66;5062222;28;61861;-73
2023/12/15 03:24:49;;;;;;;;;17.75;14.25;;;;;-146.67;59.61;76660.66;5062714;28;62014;-73
2023/12/15 03:27:14;;;;;;;;;16.50;12.75;;;;;-146.67;59.73;76646.66;5062770;28;61897;-73
2023/12/15 03:29:39;;;;;;;;;16.25;12.25;;;;;-146.67;59.68;76626.69;5063001;28;61797;-73
2023/12/15 03:32:05;;;;;;;;;14.75;13.50;;;;;-146.67;58.78;76634.69;5076298;28;61904;-73
2023/12/15 03:34:30;;;;;;;;;20.00;14.00;;;;;-146.67;59.21;76632.69;5082847;27;61824;-73
2023/12/15 03:36:56;;;;;;;;;18.75;14.75;;;;;-146.67;58.93;76626.69;5075344;27;61821;-73
2023/12/15 03:39:21;;;;;;;;;20.25;15.00;;;;;-146.67;58.35;76644.66;5062897;28;62326;-73
2023/12/15 03:41:46;;;;;;;;;16.25;13.50;;;;;-146.67;58.71;76648.66;5061758;28;61861;-73
2023/12/15 03:44:12;;;;;;;;;15.75;15.25;;;;;-146.67;58.88;76662.66;5062663;28;61788;-73
2023/12/15 03:46:37;;;;;;;;;15.25;15.25;;;;;-146.67;59.10;76660.66;5062049;28;61794;-73
2023/12/15 03:49:03;;;;;;;;;20.50;13.50;;;;;-146.67;58.91;76662.66;5061841;28;61791;-73
2023/12/15 03:51:28;;;;;;;;;21.25;16.75;;;;;-146.67;58.80;76664.66;5061895;28;62059;-73
2023/12/15 03:53:53;;;;;;;;;18.75;12.50;;;;;-146.67;58.73;76666.66;5062203;28;61961;-73
2023/12/15 03:56:25;;;;;;;;;16.75;13.25;;;;;-146.67;58.80;76662.66;5062679;28;61759;-73
2023/12/15 03:58:52;;;;;;;;;14.50;13.50;;;;;-146.67;58.88;76660.66;5062302;28;61685;-73
2023/12/15 04:01:17;;;;;;;;;18.75;14.75;;;;;-146.67;58.70;76652.66;5061367;28;61789;-73
2023/12/15 04:03:43;;;;;;;;;15.75;12.25;;;;;-146.67;58.21;76648.66;5057674;28;62208;-73
2023/12/15 04:06:08;;;;;;;;;18.25;14.00;;;;;-146.67;58.39;76652.66;5042121;28;62051;-73
2023/12/15 04:08:34;;;;;;;;;13.50;13.00;;;;;-146.67;58.39;76664.66;5042545;28;61909;-73
2023/12/15 04:11:00;;;;;;;;;14.00;11.50;;;;;-146.67;58.52;76664.66;5041561;28;63290;-73
2023/12/15 04:13:26;;;;;;;;;14.25;11.75;;;;;-146.67;58.56;76668.63;5042047;28;61981;-73
2023/12/15 04:15:52;;;;;;;;;14.75;13.00;;;;;-146.67;58.55;76662.66;5053684;28;62098;-73
2023/12/15 04:18:17;;;;;;;;;12.50;11.50;;;;;-146.67;58.39;76654.66;5062265;28;61792;-73
2023/12/15 04:20:42;;;;;;;;;12.00;7.25;;;;;-146.67;58.43;76652.66;5060132;28;61998;-74
2023/12/15 04:23:08;;;;;;;;;13.50;12.50;;;;;-146.67;58.39;76656.66;5062196;28;61919;-73
2023/12/15 04:25:33;;;;;;;;;12.25;12.25;;;;;-146.67;58.42;76648.66;5062167;28;61801;-73
2023/12/15 04:27:59;;;;;;;;;21.25;14.25;;;;;-146.67;58.09;76650.66;5061616;28;61769;-73
2023/12/15 04:30:24;;;;;;;;;12.25;9.00;;;;;-146.67;58.31;76648.66;5060663;28;61741;-74
2023/12/15 04:32:49;;;;;;;;;12.75;12.00;;;;;-146.67;58.11;76652.66;5061654;28;61782;-73
2023/12/15 04:35:15;;;;;;;;;16.00;12.75;;;;;-146.67;58.36;76654.66;5062034;28;61729;-73
2023/12/15 04:37:46;;;;;;;;;15.75;13.50;;;;;-146.67;58.06;76656.66;5060600;28;61939;-73
2023/12/15 04:40:15;;;;;;;;;16.75;14.00;;;;;-146.67;58.20;76674.63;5061259;28;61816;-73
2023/12/15 04:42:40;;;;;;;;;19.75;14.50;;;;;-146.67;58.18;76676.63;5061836;28;61798;-73
2023/12/15 04:45:09;;;;;;;;;17.50;15.00;;;;;-146.67;58.22;76682.63;5061386;28;61745;-73
2023/12/15 04:47:35;;;;;;;;;17.00;12.00;;;;;-146.67;58.10;76684.63;5061747;28;61836;-73
2023/12/15 04:50:01;;;;;;;;;18.25;12.75;;;;;-146.67;58.50;76692.59;5060187;28;62830;-73
2023/12/15 04:52:26;;;;;;;;;15.25;12.00;;;;;-146.67;58.39;76690.63;5061817;28;61965;-73
2023/12/15 04:54:51;;;;;;;;;16.50;13.50;;;;;-146.67;58.09;76684.63;5061385;28;61926;-73
2023/12/15 04:57:17;;;;;;;;;20.50;13.25;;;;;-146.67;58.29;76688.63;5058669;28;61991;-73
2023/12/15 04:59:42;;;;;;;;;15.00;14.00;;;;;-146.67;58.28;76680.63;5040806;28;61824;-73
2023/12/15 05:02:08;;;;;;;;;14.50;10.75;;;;;-146.67;58.20;76680.63;5041296;28;61842;-74
2023/12/15 05:04:34;;;;;;;;;15.00;11.00;;;;;-146.67;58.10;76688.63;5039888;28;61878;-73
2023/12/15 05:07:00;;;;;;;;;13.25;11.00;;;;;-146.67;58.13;76688.63;5039616;28;62209;-73
2023/12/15 05:09:25;;;;;;;;;13.25;12.75;;;;;-146.67;58.12;76698.59;5057556;28;61815;-73
2023/12/15 05:11:50;;;;;;;;;12.75;9.25;;;;;-146.67;58.06;76712.59;5067268;28;61980;-73
2023/12/15 05:14:16;;;;;;;;;18.50;13.75;;;;;-146.67;58.22;76724.56;5065515;28;62199;-74
2023/12/15 05:16:43;;;;;;;;;14.00;11.75;;;;;-146.67;58.27;76734.56;5061382;28;62003;-74
2023/12/15 05:19:10;;;;;;;;;12.00;11.00;;;;;-146.67;58.64;76734.56;5062289;28;62576;-73
2023/12/15 05:21:36;;;;;;;;;14.75;13.75;;;;;-146.67;58.46;76722.56;5064477;28;61744;-73
2023/12/15 05:24:01;;;;;;;;;10.00;9.50;;;;;-146.67;58.40;76716.59;5064563;28;61718;-73
2023/12/15 05:26:27;;;;;;;;;10.75;10.50;;;;;-146.67;58.31;76702.59;5065034;28;61774;-73
2023/12/15 05:28:52;;;;;;;;;19.75;14.00;;;;;-146.67;58.25;76698.59;5063988;28;62351;-73
2023/12/15 05:31:18;;;;;;;;;17.25;9.00;;;;;-146.67;58.22;76708.59;5058020;28;61988;-73
2023/12/15 05:33:44;;;;;;;;;11.00;11.00;;;;;-146.67;57.95;76700.59;5043287;28;61932;-74
2023/12/15 05:36:20;;;;;;;;;12.00;12.00;;;;;-146.67;58.12;76702.59;5061041;28;61931;-73
2023/12/15 05:38:47;;;;;;;;;15.00;13.00;;;;;-146.67;57.95;76728.56;5063741;28;62740;-73
2023/12/15 05:41:12;;;;;;;;;19.25;12.50;;;;;-146.67;58.08;76722.56;5063217;28;62050;-74
2023/12/15 05:43:38;;;;;;;;;11.75;10.75;;;;;-146.67;58.24;76720.56;5064329;28;62019;-73
2023/12/15 05:46:03;;;;;;;;;16.50;9.50;;;;;-146.67;57.95;76720.56;5064726;28;61708;-73
2023/12/15 05:48:29;;;;;;;;;20.00;12.75;;;;;-146.67;58.19;76712.59;5062355;28;64951;-73
2023/12/15 05:50:54;;;;;;;;;18.25;13.00;;;;;-146.67;58.22;76704.59;5063690;28;61856;-73
2023/12/15 05:53:19;;;;;;;;;15.50;13.00;;;;;-146.67;58.27;76690.63;5062913;28;62254;-73
2023/12/15 05:55:45;;;;;;;;;15.75;12.75;;;;;-146.67;57.89;76686.63;5064762;28;61961;-73
2023/12/15 05:58:10;;;;;;;;;16.25;12.00;;;;;-146.67;57.88;76686.63;5063540;28;62315;-73
2023/12/15 06:00:36;;;;;;;;;14.75;12.50;;;;;-146.67;57.94;76686.63;5064615;28;62259;-73
2023/12/15 06:03:01;;;;;;;;;15.75;13.50;;;;;-146.67;58.02;76684.63;5064434;28;61946;-73
2023/12/15 06:05:28;;;;;;;;;22.75;19.00;;;;;-146.67;58.01;76684.63;5062225;28;62025;-73
2023/12/15 06:07:53;;;;;;;;;21.25;14.25;;;;;-146.67;58.09;76692.59;5054947;28;62537;-73
2023/12/15 06:10:19;;;;;;;;;21.75;15.25;;;;;-146.67;58.20;76698.59;5042229;28;62139;-73
2023/12/15 06:12:45;;;;;;;;;23.50;19.50;;;;;-146.67;58.14;76706.59;5043355;28;61929;-72
2023/12/15 06:15:10;;;;;;;;;18.00;15.75;;;;;-146.67;58.25;76710.59;5044002;28;61644;-73
2023/12/15 06:17:36;;;;;;;;;18.00;16.00;;;;;-146.67;58.00;76710.59;5042907;28;61811;-73
2023/12/15 06:20:01;;;;;;;;;16.25;15.25;;;;;-146.67;58.33;76710.59;5042959;28;61732;-73
2023/12/15 06:22:27;;;;;;;;;14.50;11.50;;;;;-146.67;58.06;76708.59;5063433;28;62595;-73
2023/12/15 06:24:52;;;;;;;;;17.50;13.00;;;;;-146.67;57.92;76710.59;5065174;28;61431;-73
2023/12/15 06:27:18;;;;;;;;;17.00;13.00;;;;;-146.67;58.09;76712.59;5062963;28;61862;-73
2023/12/15 06:29:43;;;;;;;;;13.75;12.25;;;;;-146.67;58.15;76720.56;5061434;28;62155;-72
2023/12/15 06:32:10;;;;;;;;;23.50;15.50;;;;;-146.67;57.91;76722.56;5063452;28;61993;-73
2023/12/15 06:34:37;;;;;;;;;16.00;10.75;;;;;-146.67;58.00;76724.56;5050551;28;61792;-73
2023/12/15 06:37:02;;;;;;;;;14.75;12.75;;;;;-146.67;58.00;76736.56;5042588;28;61967;-74
2023/12/15 06:39:28;;;;;;;;;17.25;14.00;;;;;-146.67;58.06;76734.56;5048952;28;61796;-73
2023/12/15 06:41:53;;;;;;;;;16.00;14.00;;;;;-146.67;57.94;76746.53;5063378;28;61837;-73
2023/12/15 06:44:18;;;;;;;;;23.25;14.25;;;;;-146.67;58.28;76776.50;5062091;28;61919;-74
2023/12/15 06:46:45;;;;;;;;;25.50;17.75;;;;;-146.67;58.27;76788.50;5042826;28;61922;-73
2023/12/15 06:49:11;;;;;;;;;19.25;16.50;;;;;-146.67;58.72;76808.47;5051871;28;61926;-73
2023/12/15 06:51:36;;;;;;;;;15.00;14.00;;;;;-146.67;58.76;76818.47;5061114;28;61815;-74
2023/12/15 06:54:01;;;;;;;;;18.25;17.25;;;;;-146.67;59.11;76840.44;5052359;28;62648;-74
2023/12/15 06:56:27;;;;;;;;;22.25;17.00;;;;;-146.67;59.68;76848.41;5049062;28;62139;-74
2023/12/15 06:58:52;;;;;;;;;22.25;18.25;;;;;-146.67;59.32;76860.41;5059657;28;61703;-73
2023/12/15 07:01:18;;;;;;;;;18.00;16.50;;;;;-146.67;59.83;76860.41;5055438;28;61782;-74
2023/12/15 07:03:44;;;;;;;;;18.75;15.75;;;;;-146.67;59.97;76870.41;5050742;28;62099;-74
2023/12/15 07:06:09;;;;;;;;;18.75;18.50;;;;;-146.67;60.38;76876.38;5050220;28;61967;-73
2023/12/15 07:08:34;;;;;;;;;19.25;13.00;;;;;-146.67;60.09;76876.38;5060983;28;61814;-73
2023/12/15 07:11:00;;;;;;;;;23.00;19.00;;;;;-146.67;59.75;76884.38;5060930;28;61870;-74
2023/12/15 07:13:25;;;;;;;;;21.75;17.75;;;;;-146.67;59.98;76878.38;5062034;28;61777;-74
2023/12/15 07:15:52;;;;;;;;;20.50;19.25;;;;;-146.67;59.88;76884.38;5061645;28;61865;-75
2023/12/15 07:18:17;;;;;;;;;24.00;13.50;;;;;-146.67;59.82;76890.38;5061746;28;61993;-75
2023/12/15 07:20:43;;;;;;;;;21.00;17.00;;;;;-146.67;59.84;76882.38;5054226;28;62078;-75
2023/12/15 07:23:08;;;;;;;;;19.00;15.50;;;;;-146.67;59.79;76884.38;5058822;28;61739;-74
2023/12/15 07:25:34;;;;;;;;;18.75;14.25;;;;;-146.67;59.68;76866.41;5059906;28;62386;-74
2023/12/15 07:27:59;;;;;;;;;27.25;19.00;;;;;-146.67;59.84;76856.41;5060273;28;61888;-74
2023/12/15 07:30:25;;;;;;;;;24.75;14.00;;;;;-146.67;59.30;76856.41;5047015;28;61955;-74
2023/12/15 07:32:50;;;;;;;;;25.00;22.75;;;;;-146.67;59.40;76846.41;5063749;28;61624;-73
2023/12/15 07:35:16;;;;;;;;;18.75;15.00;;;;;-146.67;59.10;76850.41;5041361;28;62077;-75
2023/12/15 07:37:41;;;;;;;;;22.25;19.75;;;;;-146.67;59.31;76874.38;5040442;28;61804;-73
2023/12/15 07:40:07;;;;;;;;;19.25;14.75;;;;;-146.67;59.70;76888.38;5061789;28;61753;-75
2023/12/15 07:42:32;;;;;;;;;20.00;15.00;;;;;-146.67;59.52;76872.41;5062164;28;61798;-75
2023/12/15 07:44:58;;;;;;;;;23.75;16.75;;;;;-146.67;59.44;76870.41;5061167;28;62095;-73
2023/12/15 07:47:24;;;;;;;;;24.25;19.00;;;;;-146.67;59.28;76864.41;5061253;28;62105;-74
2023/12/15 07:49:49;;;;;;;;;25.50;21.00;;;;;-146.67;59.05;76858.41;5058786;28;61939;-74
2023/12/15 07:52:14;;;;;;;;;20.50;19.25;;;;;-146.67;58.84;76870.41;5061279;28;61910;-74
2023/12/15 07:54:40;;;;;;;;;22.75;18.25;;;;;-146.67;58.89;76874.38;5060569;28;61925;-74
2023/12/15 07:57:06;;;;;;;;;21.25;17.25;;;;;-146.67;59.29;76874.38;5061530;28;61849;-74
2023/12/15 07:59:34;;;;;;;;;29.75;19.00;;;;;-146.67;58.91;76876.38;5061452;28;62682;-75
2023/12/15 08:02:00;;;;;;;;;29.50;23.00;;;;;-146.67;59.11;76880.38;5057059;28;61683;-74
2023/12/15 08:04:25;;;;;;;;;17.25;16.25;;;;;-146.67;59.22;76868.41;5040411;28;61955;-74
2023/12/15 08:06:51;;;;;;;;;15.00;14.00;;;;;-146.67;58.95;76856.41;5058715;28;61915;-74
2023/12/15 08:09:16;;;;;;;;;20.00;15.00;;;;;-146.67;58.81;76854.41;5061561;28;61753;-74
2023/12/15 08:11:41;;;;;;;;;24.00;20.50;;;;;-146.67;58.53;76856.41;5062008;28;61982;-74
2023/12/15 08:14:07;;;;;;;;;27.25;19.25;;;;;-146.67;58.65;76860.41;5059869;28;62411;-74
2023/12/15 08:16:33;;;;;;;;;23.50;18.25;;;;;-146.67;58.72;76844.44;5061793;28;61755;-74
2023/12/15 08:18:59;;;;;;;;;22.25;18.25;;;;;-146.67;58.50;76846.41;5061329;28;61968;-74
2023/12/15 08:21:24;;;;;;;;;25.00;17.75;;;;;-146.67;58.31;76846.41;5061135;28;62075;-74
2023/12/15 08:23:50;;;;;;;;;27.50;18.00;;;;;-146.67;58.44;76848.41;5060130;28;64938;-74
2023/12/15 08:26:23;;;;;;;;;24.50;19.00;;;;;-146.67;58.57;76838.44;5060344;28;61869;-74
2023/12/15 08:28:49;;;;;;;;;28.25;24.00;;;;;-146.67;58.39;76836.44;5061604;28;62309;-74
2023/12/15 08:31:15;;;;;;;;;32.75;25.75;;;;;-146.67;58.48;76832.44;5061965;28;62290;-73
2023/12/15 08:33:42;;;;;;;;;25.50;24.50;;;;;-146.67;58.08;76828.44;5059211;28;63864;-74
2023/12/15 08:36:08;;;;;;;;;26.75;20.50;;;;;-146.67;58.35;76824.44;5060707;28;62115;-75
2023/12/15 08:38:34;;;;;;;;;26.00;18.50;;;;;-146.67;58.18;76820.44;5044280;28;61854;-74
2023/12/15 08:40:59;;;;;;;;;26.50;22.75;;;;;-146.67;57.98;76822.44;5041769;28;62079;-74
2023/12/15 08:43:25;;;;;;;;;25.75;21.25;;;;;-146.67;57.86;76832.44;5040855;28;61949;-74
2023/12/15 08:45:51;;;;;;;;;21.50;20.00;;;;;-146.67;57.98;76828.44;5041847;28;61931;-74
2023/12/15 08:48:16;;;;;;;;;25.50;21.00;;;;;-146.67;57.95;76820.44;5039627;28;62122;-73
2023/12/15 08:50:41;;;;;;;;;26.25;21.25;;;;;-146.67;57.95;76820.44;5040407;28;61834;-74
2023/12/15 08:53:07;;;;;;;;;22.00;17.25;;;;;-146.67;57.76;76822.44;5038726;28;62515;-74
2023/12/15 08:55:32;;;;;;;;;22.75;21.00;;;;;-146.67;57.73;76808.47;5056494;28;61875;-74
2023/12/15 08:57:57;;;;;;;;;24.75;23.25;;;;;-146.67;57.84;76798.47;5059905;28;61932;-74
2023/12/15 09:00:23;;;;;;;;;33.50;20.00;;;;;-146.67;57.70;76790.50;5061336;28;62097;-74
2023/12/15 09:02:52;;;;;;;;;31.50;24.25;;;;;-146.67;57.26;76786.50;5058939;28;63537;-74
2023/12/15 09:05:20;;;;;;;;;35.00;25.75;;;;;-146.67;57.32;76770.50;5060581;28;62164;-74
2023/12/15 09:07:45;;;;;;;;;24.75;22.25;;;;;-146.67;57.34;76770.50;5061644;28;61705;-73
2023/12/15 09:10:11;;;;;;;;;23.00;22.25;;;;;-146.67;56.82;76768.53;5061575;28;61704;-72
2023/12/15 09:12:36;;;;;;;;;24.50;23.00;;;;;-146.67;56.91;76766.53;5060847;28;61680;-72
2023/12/15 09:15:02;;;;;;;;;32.75;20.75;;;;;-146.67;56.92;76754.53;5050104;28;61999;-72
2023/12/15 09:17:28;;;;;;;;;25.25;21.25;;;;;-146.67;56.38;76762.53;5056554;28;62167;-72
2023/12/15 09:19:53;;;;;;;;;27.75;22.50;;;;;-146.67;56.41;76780.50;5040316;28;62049;-72
2023/12/15 09:22:18;;;;;;;;;22.75;17.25;;;;;-146.67;56.30;76776.50;5051090;28;61829;-72
2023/12/15 09:24:44;;;;;;;;;24.75;17.75;;;;;-146.67;56.65;76774.50;5061210;28;62946;-73
2023/12/15 09:27:09;;;;;;;;;25.00;20.50;;;;;-146.67;55.90;76776.50;5060785;28;62101;-72
2023/12/15 09:29:35;;;;;;;;;25.75;19.00;;;;;-146.67;56.05;76776.50;5068265;28;62142;-72
2023/12/15 09:32:02;;;;;;;;;16.00;16.00;;;;;-146.67;56.24;76750.53;5061242;27;61932;-72
2023/12/15 09:34:27;;;;;;;;;21.75;19.00;;;;;-146.67;55.77;76742.56;5060236;28;61923;-72
2023/12/15 09:36:53;;;;;;;;;25.50;22.25;;;;;-146.67;55.89;76742.56;5060277;28;62097;-72
2023/12/15 09:39:18;;;;;;;;;25.50;22.75;;;;;-146.67;55.65;76740.56;5042980;28;62003;-73
2023/12/15 09:41:43;;;;;;;;;20.50;16.00;;;;;-146.67;55.91;76746.53;5040407;28;61753;-72
2023/12/15 09:44:09;;;;;;;;;30.00;20.50;;;;;-146.67;55.84;76738.56;5052969;28;61841;-72
2023/12/15 09:46:35;;;;;;;;;31.75;22.00;;;;;-146.67;55.71;76750.53;5059361;28;62150;-72
2023/12/15 09:49:02;;;;;;;;;23.00;20.50;;;;;-146.67;55.54;76736.56;5059973;28;61971;-73
2023/12/15 09:51:30;;;;;;;;;15.50;13.50;;;;;-146.67;55.22;76758.53;5059626;28;63027;-72
2023/12/15 09:53:55;;;;;;;;;23.25;18.00;;;;;-146.67;55.61;76768.53;5060799;28;62019;-73
2023/12/15 09:56:22;;;;;;;;;22.75;19.75;;;;;-146.67;55.44;76766.53;5060641;28;61897;-72
2023/12/15 09:58:47;;;;;;;;;23.00;19.00;;;;;-146.67;55.55;76764.53;5060622;28;62079;-72
2023/12/15 10:01:13;;;;;;;;;24.75;19.75;;;;;-146.67;55.37;76760.53;5059754;28;61919;-72
2023/12/15 10:03:39;;;;;;;;;28.75;20.00;;;;;-146.67;55.47;76766.53;5061409;28;61738;-72
2023/12/15 10:06:05;;;;;;;;;31.25;21.00;;;;;-146.67;55.40;76748.53;5063481;28;61931;-73
2023/12/15 10:08:49;;;;;;;;;25.00;20.00;;;;;-146.67;55.21;76730.56;5049695;28;62130;-73
2023/12/15 10:11:16;;;;;;;;;29.75;22.00;;;;;-146.67;55.58;76724.56;5043507;28;61735;-72
2023/12/15 10:13:42;;;;;;;;;29.50;21.25;;;;;-146.67;55.21;76720.56;5045435;28;61837;-72
2023/12/15 10:16:09;;;;;;;;;25.00;22.75;;;;;-146.67;55.31;76720.56;5063976;28;61964;-73
2023/12/15 10:18:35;;;;;;;;;21.50;15.50;;;;;-146.67;55.45;76718.56;5063353;28;62038;-72
2023/12/15 10:21:00;;;;;;;;;17.00;15.25;;;;;-146.67;55.20;76734.56;5054789;28;61911;-72
2023/12/15 10:23:28;;;;;;;;;19.75;19.75;;;;;-146.67;55.08;76736.56;5043576;28;61852;-73
2023/12/15 10:25:54;;;;;;;;;15.25;11.50;;;;;-146.67;55.11;76734.56;5043782;28;61916;-72
2023/12/15 10:28:20;;;;;;;;;16.75;14.25;;;;;-146.67;55.28;76740.56;5044046;28;61912;-73
2023/12/15 10:30:48;;;;;;;;;18.75;14.75;;;;;-146.67;55.44;76726.56;5042635;28;61948;-72
2023/12/15 10:33:17;;;;;;;;;26.50;19.25;;;;;-146.67;55.07;76724.56;5050935;28;61838;-73
2023/12/15 10:35:45;;;;;;;;;17.50;15.00;;;;;-146.67;55.30;76734.56;5063438;28;62011;-73
2023/12/15 10:38:11;;;;;;;;;26.00;20.00;;;;;-146.67;55.41;76750.53;5050526;28;61952;-71
2023/12/15 10:40:36;;;;;;;;;14.00;10.25;;;;;-146.67;55.51;76776.50;5044911;28;62737;-71
2023/12/15 10:43:03;;;;;;;;;19.50;15.75;;;;;-146.67;56.00;76786.50;5047948;28;61905;-72
2023/12/15 10:45:31;;;;;;;;;24.50;19.75;;;;;-146.67;55.91;76776.50;5043998;28;61913;-72
2023/12/15 10:47:58;;;;;;;;;20.00;16.75;;;;;-146.67;56.15;76768.53;5042845;28;61846;-72
2023/12/15 10:50:24;;;;;;;;;19.75;14.25;;;;;-146.67;55.95;76764.53;5048250;28;62770;-71
2023/12/15 10:52:51;;;;;;;;;21.50;18.00;;;;;-146.67;55.85;76760.53;5062899;28;62079;-72
2023/12/15 10:55:20;;;;;;;;;21.50;18.75;;;;;-146.67;55.77;76748.53;5061728;28;61964;-72
2023/12/15 10:57:47;;;;;;;;;21.75;18.00;;;;;-146.67;55.75;76756.53;5043059;28;62041;-72